createdAt,value
2022-11-28T00:01:36.212Z,99023.47
2022-11-28T00:04:03.952Z,99020.34
2022-11-28T00:06:31.049Z,99024.19
2022-11-28T00:08:59.557Z,99032.31
2022-11-28T00:11:26.558Z,99025.03
2022-11-28T00:13:54.717Z,99035.53
2022-11-28T00:16:23.218Z,99030.25
2022-11-28T00:18:51.714Z,99020.03
2022-11-28T00:21:19.149Z,99020.03
2022-11-28T00:23:47.622Z,99014.31
2022-11-28T00:26:17.729Z,99015.84
2022-11-28T00:28:45.195Z,99012.94
2022-11-28T00:31:14.598Z,99011.50
2022-11-28T00:33:42.460Z,99015.97
2022-11-28T00:36:10.051Z,99000.47
2022-11-28T00:38:37.329Z,99003.78
2022-11-28T00:41:06.821Z,98998.19
2022-11-28T00:43:34.077Z,98994.31
2022-11-28T00:46:01.531Z,98990.06
2022-11-28T00:48:29.699Z,98995.78
2022-11-28T00:51:07.579Z,98974.47
2022-11-28T00:53:34.752Z,98984.44
2022-11-28T00:56:01.968Z,98979.22
2022-11-28T00:58:28.931Z,98977.78
2022-11-28T01:00:56.250Z,98990.06
2022-11-28T01:03:29.798Z,98984.53
2022-11-28T01:05:56.600Z,98984.63
2022-11-28T01:08:23.551Z,98992.44
2022-11-28T01:10:52.144Z,98987.75
2022-11-28T01:13:19.212Z,98981.94
2022-11-28T01:15:46.417Z,98985.25
2022-11-28T01:18:13.304Z,98981.50
2022-11-28T01:20:40.238Z,98976.38
2022-11-28T01:23:08.109Z,98975.75
2022-11-28T01:25:35.503Z,98967.94
2022-11-28T01:28:02.629Z,98964.00
2022-11-28T01:30:29.746Z,98957.72
2022-11-28T01:32:56.682Z,98959.22
2022-11-28T01:35:24.478Z,98954.00
2022-11-28T01:37:51.471Z,98961.09
2022-11-28T01:40:18.312Z,98962.16
2022-11-28T01:42:45.153Z,98960.72
2022-11-28T01:45:40.683Z,98950.81
2022-11-28T01:48:09.450Z,98939.25
2022-11-28T01:50:36.898Z,98937.78
2022-11-28T01:53:07.470Z,98939.34
2022-11-28T01:55:41.148Z,98929.88
2022-11-28T01:58:08.255Z,98924.88
2022-11-28T02:00:35.106Z,98925.53
2022-11-28T02:03:12.515Z,98921.97
2022-11-28T02:05:40.103Z,98923.03
2022-11-28T02:08:08.875Z,98919.13
2022-11-28T02:11:01.167Z,98918.22
2022-11-28T02:14:00.604Z,98913.22
2022-11-28T02:16:39.684Z,98909.28
2022-11-28T02:19:29.766Z,98902.09
2022-11-28T02:22:20.221Z,98902.38
2022-11-28T02:25:05.925Z,98894.06
2022-11-28T02:28:29.938Z,98891.69
2022-11-28T02:31:38.374Z,98892.59
2022-11-28T02:34:10.819Z,98892.41
2022-11-28T02:37:05.327Z,98892.41
2022-11-28T02:39:45.359Z,98887.19
2022-11-28T02:42:27.004Z,98888.84
2022-11-28T02:45:09.333Z,98886.16
2022-11-28T02:47:39.344Z,98882.69
2022-11-28T02:50:16.114Z,98885.31
2022-11-28T02:52:47.621Z,98877.72
2022-11-28T02:55:15.599Z,98874.06
2022-11-28T02:57:48.386Z,98876.78
2022-11-28T03:00:43.956Z,98865.22
2022-11-28T03:03:27.733Z,98870.44
2022-11-28T03:06:13.937Z,98869.13
2022-11-28T03:09:19.453Z,98862.78
2022-11-28T03:12:15.826Z,98860.66
2022-11-28T03:14:55.477Z,98854.97
2022-11-28T03:18:05.551Z,98853.06
2022-11-28T03:21:02.453Z,98848.25
2022-11-28T03:23:37.424Z,98852.41
2022-11-28T03:26:08.990Z,98849.09
2022-11-28T03:28:43.757Z,98850.75
2022-11-28T03:31:14.250Z,98851.09
2022-11-28T03:33:48.818Z,98856.69
2022-11-28T03:36:19.314Z,98848.88
2022-11-28T03:38:49.940Z,98835.84
2022-11-28T03:41:24.217Z,98839.00
2022-11-28T03:43:52.027Z,98841.63
2022-11-28T03:46:20.958Z,98831.38
2022-11-28T03:48:57.795Z,98835.84
2022-11-28T03:51:45.037Z,98816.44
2022-11-28T03:54:16.083Z,98832.75
2022-11-28T03:56:52.860Z,98821.84
2022-11-28T03:59:33.969Z,98825.09
2022-11-28T04:02:50.277Z,98823.69
2022-11-28T04:05:30.001Z,98824.19
2022-11-28T04:08:00.947Z,98818.09
2022-11-28T04:10:30.054Z,98815.84
2022-11-28T04:13:26.840Z,98811.22
2022-11-28T04:15:58.557Z,98808.59
2022-11-28T04:18:28.282Z,98816.88
2022-11-28T04:21:01.179Z,98806.47
2022-11-28T04:23:28.632Z,98807.19
2022-11-28T04:26:26.229Z,98810.03
2022-11-28T04:28:54.594Z,98800.34
2022-11-28T04:31:23.091Z,98784.75
2022-11-28T04:33:56.211Z,98783.28
2022-11-28T04:36:24.455Z,98788.72
2022-11-28T04:38:56.715Z,98782.06
2022-11-28T04:41:36.642Z,98788.44
2022-11-28T04:44:27.478Z,98784.69
2022-11-28T04:46:56.796Z,98788.22
2022-11-28T04:49:24.677Z,98781.38
2022-11-28T04:52:08.061Z,98781.06
2022-11-28T04:55:18.542Z,98777.72
2022-11-28T04:57:49.649Z,98776.78
2022-11-28T05:00:21.011Z,98769.09
2022-11-28T05:02:51.434Z,98766.38
2022-11-28T05:05:25.327Z,98749.34
2022-11-28T05:07:53.902Z,98742.13
2022-11-28T05:10:22.431Z,98748.75
2022-11-28T05:12:49.530Z,98748.19
2022-11-28T05:15:19.449Z,98751.56
2022-11-28T05:17:47.128Z,98723.69
2022-11-28T05:20:14.239Z,98717.03
2022-11-28T05:22:41.518Z,98725.41
2022-11-28T05:25:10.260Z,98719.78
2022-11-28T05:27:37.721Z,98725.63
2022-11-28T05:30:06.844Z,98729.03
2022-11-28T05:32:33.654Z,98739.41
2022-11-28T05:35:00.688Z,98735.97
2022-11-28T05:37:28.233Z,98723.56
2022-11-28T05:39:55.565Z,98734.56
2022-11-28T05:42:22.469Z,98733.34
2022-11-28T05:44:49.886Z,98722.84
2022-11-28T05:47:16.740Z,98722.38
2022-11-28T05:49:44.373Z,98701.94
2022-11-28T05:52:11.469Z,98698.41
2022-11-28T05:54:38.621Z,98710.47
2022-11-28T05:57:09.013Z,98713.03
2022-11-28T05:59:35.888Z,98727.13
2022-11-28T06:02:03.101Z,98743.16
2022-11-28T06:04:29.938Z,98740.31
2022-11-28T06:06:56.962Z,98732.13
2022-11-28T06:09:26.090Z,98723.25
2022-11-28T06:11:53.490Z,98715.66
2022-11-28T06:14:20.601Z,98716.50
2022-11-28T06:16:47.610Z,98713.41
2022-11-28T06:19:15.626Z,98714.25
2022-11-28T06:21:42.848Z,98708.59
2022-11-28T06:24:09.939Z,98707.56
2022-11-28T06:26:37.292Z,98717.47
2022-11-28T06:29:04.607Z,98715.47
2022-11-28T06:31:31.705Z,98714.00
2022-11-28T06:33:58.773Z,98728.91
2022-11-28T06:36:26.662Z,98723.72
2022-11-28T06:38:54.501Z,98723.22
2022-11-28T06:41:23.222Z,98722.56
2022-11-28T06:43:50.776Z,98729.16
2022-11-28T06:46:20.337Z,98718.75
2022-11-28T06:48:48.185Z,98730.09
2022-11-28T06:51:15.232Z,98723.84
2022-11-28T06:53:42.875Z,98729.78
2022-11-28T06:56:15.278Z,98719.47
2022-11-28T06:58:43.165Z,98719.38
2022-11-28T07:01:16.247Z,98729.88
2022-11-28T07:03:44.685Z,98719.00
2022-11-28T07:06:12.857Z,98721.59
2022-11-28T07:08:39.896Z,98727.75
2022-11-28T07:11:11.891Z,98721.44
2022-11-28T07:13:39.738Z,98716.16
2022-11-28T07:16:07.785Z,98725.47
2022-11-28T07:18:35.030Z,98725.63
2022-11-28T07:21:02.449Z,98716.41
2022-11-28T07:23:29.501Z,98731.28
2022-11-28T07:26:00.556Z,98725.63
2022-11-28T07:28:28.541Z,98721.72
2022-11-28T07:31:11.324Z,98733.19
2022-11-28T07:33:39.996Z,98725.00
2022-11-28T07:36:10.611Z,98731.44
2022-11-28T07:38:37.526Z,98734.59
2022-11-28T07:41:09.818Z,98736.06
2022-11-28T07:43:37.323Z,98734.50
2022-11-28T07:46:08.940Z,98737.69
2022-11-28T07:48:36.194Z,98736.75
2022-11-28T07:51:11.651Z,98741.25
2022-11-28T07:53:38.942Z,98744.31
2022-11-28T07:56:08.665Z,98753.06
2022-11-28T07:58:37.043Z,98749.66
2022-11-28T08:01:24.549Z,98743.50
2022-11-28T08:03:53.052Z,98742.19
2022-11-28T08:06:21.956Z,98748.13
2022-11-28T08:08:49.466Z,98745.03
2022-11-28T08:11:18.208Z,98743.88
2022-11-28T08:13:45.477Z,98749.09
2022-11-28T08:16:15.409Z,98749.69
2022-11-28T08:18:42.408Z,98757.88
2022-11-28T08:21:15.702Z,98750.50
2022-11-28T08:23:42.981Z,98744.47
2022-11-28T08:26:11.567Z,98750.28
2022-11-28T08:28:38.302Z,98750.06
2022-11-28T08:31:33.109Z,98745.06
2022-11-28T08:34:00.849Z,98740.81
2022-11-28T08:36:29.511Z,98755.25
2022-11-28T08:39:22.787Z,98743.41
2022-11-28T08:41:43.679Z,98742.84
2022-11-28T08:44:10.660Z,98748.53
2022-11-28T08:46:37.441Z,98744.03
2022-11-28T08:49:04.848Z,98751.72
2022-11-28T08:51:32.011Z,98736.78
2022-11-28T08:54:00.086Z,98752.91
2022-11-28T08:56:27.637Z,98748.66
2022-11-28T08:58:55.278Z,98744.88
2022-11-28T09:01:24.888Z,98741.44
2022-11-28T09:03:53.260Z,98732.91
2022-11-28T09:06:21.402Z,98738.13
2022-11-28T09:08:49.462Z,98740.25
2022-11-28T09:11:18.751Z,98735.53
2022-11-28T09:13:46.100Z,98741.34
2022-11-28T09:16:13.784Z,98737.56
2022-11-28T09:18:41.260Z,98739.59
2022-11-28T09:21:09.818Z,98739.22
2022-11-28T09:23:38.249Z,98736.63
2022-11-28T09:26:19.454Z,98737.47
2022-11-28T09:28:46.397Z,98736.50
2022-11-28T09:31:15.159Z,98736.50
2022-11-28T09:33:42.859Z,98730.22
2022-11-28T09:36:12.409Z,98727.50
2022-11-28T09:38:39.864Z,98734.22
2022-11-28T09:41:28.935Z,98735.06
2022-11-28T09:44:19.125Z,98728.69
2022-11-28T09:46:47.503Z,98732.22
2022-11-28T09:49:41.735Z,98730.56
2022-11-28T09:52:46.970Z,98729.84
2022-11-28T09:55:39.208Z,98734.72
2022-11-28T09:58:13.175Z,98726.06
2022-11-28T10:00:51.431Z,98734.09
2022-11-28T10:03:39.054Z,98738.09
2022-11-28T10:06:46.395Z,98725.91
2022-11-28T10:09:31.668Z,98725.34
2022-11-28T10:12:21.582Z,98721.28
2022-11-28T10:14:57.946Z,98722.59
2022-11-28T10:18:00.910Z,98718.78
2022-11-28T10:20:32.227Z,98715.22
2022-11-28T10:23:17.045Z,98716.28
2022-11-28T10:25:55.798Z,98711.56
2022-11-28T10:28:27.401Z,98701.72
2022-11-28T10:31:00.235Z,98703.41
2022-11-28T10:34:05.233Z,98692.13
2022-11-28T10:36:35.605Z,98689.16
2022-11-28T10:39:11.367Z,98682.88
2022-11-28T10:42:14.543Z,98694.84
2022-11-28T10:45:24.137Z,98688.88
2022-11-28T10:48:38.073Z,98689.97
2022-11-28T10:51:22.176Z,98682.47
2022-11-28T10:54:05.436Z,98700.13
2022-11-28T10:56:40.613Z,98692.28
2022-11-28T10:59:45.260Z,98689.91
2022-11-28T11:02:41.628Z,98678.22
2022-11-28T11:05:14.445Z,98681.72
2022-11-28T11:07:47.358Z,98673.66
2022-11-28T11:10:19.688Z,98669.13
2022-11-28T11:12:47.408Z,98665.31
2022-11-28T11:15:33.173Z,98668.66
2022-11-28T11:18:22.369Z,98664.53
2022-11-28T11:20:49.909Z,98663.69
2022-11-28T11:23:22.060Z,98664.88
2022-11-28T11:25:55.731Z,98663.16
2022-11-28T11:28:39.165Z,98664.25
2022-11-28T11:31:15.549Z,98661.19
2022-11-28T11:33:42.878Z,98655.47
2022-11-28T11:36:45.627Z,98657.00
2022-11-28T11:39:25.725Z,98649.50
2022-11-28T11:42:23.113Z,98653.75
2022-11-28T11:44:50.419Z,98647.28
2022-11-28T11:47:17.658Z,98654.47
2022-11-28T11:49:49.142Z,98655.50
2022-11-28T11:52:27.600Z,98651.94
2022-11-28T11:55:13.560Z,98645.25
2022-11-28T11:57:46.611Z,98655.50
2022-11-28T12:00:19.977Z,98653.41
2022-11-28T12:02:54.633Z,98649.56
2022-11-28T12:05:27.981Z,98657.22
2022-11-28T12:08:01.550Z,98649.00
2022-11-28T12:10:31.818Z,98652.69
2022-11-28T12:12:58.947Z,98655.69
2022-11-28T12:15:49.516Z,98655.03
2022-11-28T12:18:27.777Z,98657.25
2022-11-28T12:21:18.783Z,98664.97
2022-11-28T12:24:10.073Z,98658.78
2022-11-28T12:26:44.943Z,98653.97
2022-11-28T12:29:28.001Z,98653.84
2022-11-28T12:32:34.488Z,98664.66
2022-11-28T12:35:32.627Z,98665.41
2022-11-28T12:39:04.204Z,98658.09
2022-11-28T12:41:57.192Z,98650.78
2022-11-28T12:44:48.837Z,98656.69
2022-11-28T12:47:42.135Z,98659.75
2022-11-28T12:50:38.244Z,98653.41
2022-11-28T12:53:31.302Z,98651.22
2022-11-28T12:56:39.765Z,98656.19
2022-11-28T12:59:31.265Z,98650.97
2022-11-28T13:02:35.746Z,98659.47
2022-11-28T13:05:26.296Z,98647.28
2022-11-28T13:08:48.848Z,98660.25
2022-11-28T13:12:01.077Z,98657.59
2022-11-28T13:14:49.040Z,98654.78
2022-11-28T13:17:44.343Z,98661.16
2022-11-28T13:20:28.364Z,98662.81
2022-11-28T13:23:19.393Z,98658.69
2022-11-28T13:25:56.065Z,98663.22
2022-11-28T13:28:51.401Z,98666.38
2022-11-28T13:31:34.881Z,98655.84
2022-11-28T13:34:02.026Z,98657.53
2022-11-28T13:40:05.979Z,98649.88
2022-11-28T13:45:39.224Z,98664.97
2022-11-28T13:49:06.204Z,98664.69
2022-11-28T13:51:30.969Z,98650.72
2022-11-28T13:54:25.320Z,98659.19
2022-11-28T13:57:29.592Z,98651.59
2022-11-28T14:00:01.657Z,98647.91
2022-11-28T14:02:45.042Z,98656.47
2022-11-28T14:05:28.004Z,98651.81
2022-11-28T14:07:56.300Z,98653.78
2022-11-28T14:11:06.939Z,98660.66
2022-11-28T14:14:35.577Z,98657.47
2022-11-28T14:17:28.686Z,98653.69
2022-11-28T14:20:35.190Z,98657.53
2022-11-28T14:23:22.260Z,98667.31
2022-11-28T14:25:50.978Z,98657.66
2022-11-28T14:28:36.952Z,98653.88
2022-11-28T14:31:31.444Z,98665.47
2022-11-28T14:34:01.279Z,98663.84
2022-11-28T14:36:31.158Z,98665.72
2022-11-28T14:39:02.633Z,98661.22
2022-11-28T14:41:29.867Z,98656.25
2022-11-28T14:44:35.505Z,98656.69
2022-11-28T14:47:39.659Z,98658.47
2022-11-28T14:50:06.451Z,98661.22
2022-11-28T14:52:39.624Z,98659.88
2022-11-28T14:55:19.147Z,98663.84
2022-11-28T14:58:03.224Z,98666.56
2022-11-28T15:00:50.089Z,98664.59
2022-11-28T15:03:35.802Z,98670.44
2022-11-28T15:06:11.239Z,98666.75
2022-11-28T15:09:12.176Z,98653.13
2022-11-28T15:12:11.751Z,98663.44
2022-11-28T15:14:38.914Z,98666.75
2022-11-28T15:17:09.902Z,98669.34
2022-11-28T15:19:47.250Z,98664.06
2022-11-28T15:22:41.480Z,98672.69
2022-11-28T15:25:23.070Z,98659.78
2022-11-28T15:27:50.181Z,98664.75
2022-11-28T15:30:26.780Z,98667.47
2022-11-28T15:32:58.925Z,98668.38
2022-11-28T15:35:26.973Z,98671.44
2022-11-28T15:37:55.791Z,98668.81
2022-11-28T15:40:30.261Z,98671.50
2022-11-28T15:42:57.409Z,98669.47
2022-11-28T15:45:32.772Z,98668.31
2022-11-28T15:47:59.938Z,98669.06
2022-11-28T15:50:29.705Z,98669.41
2022-11-28T15:53:15.599Z,98674.50
2022-11-28T15:55:42.873Z,98660.63
2022-11-28T15:58:23.692Z,98677.69
2022-11-28T16:01:29.050Z,98673.94
2022-11-28T16:04:14.111Z,98672.41
2022-11-28T16:06:43.155Z,98685.22
2022-11-28T16:09:39.495Z,98687.88
2022-11-28T16:12:13.368Z,98677.69
2022-11-28T16:14:44.852Z,98679.94
2022-11-28T16:17:25.509Z,98681.72
2022-11-28T16:19:53.284Z,98681.47
2022-11-28T16:22:22.482Z,98675.31
2022-11-28T16:24:51.709Z,98680.53
2022-11-28T16:27:38.201Z,98682.91
2022-11-28T16:30:44.916Z,98676.50
2022-11-28T16:33:56.918Z,98683.28
2022-11-28T16:36:27.183Z,98683.63
2022-11-28T16:39:09.524Z,98676.66
2022-11-28T16:41:37.629Z,98683.41
2022-11-28T16:44:07.964Z,98682.94
2022-11-28T16:46:48.944Z,98681.97
2022-11-28T16:49:39.958Z,98679.56
2022-11-28T16:52:49.386Z,98687.78
2022-11-28T16:55:40.358Z,98684.78
2022-11-28T16:58:21.858Z,98680.53
2022-11-28T17:01:01.102Z,98690.00
2022-11-28T17:04:00.589Z,98682.91
2022-11-28T17:06:37.142Z,98677.09
2022-11-28T17:09:09.221Z,98684.72
2022-11-28T17:11:37.855Z,98676.78
2022-11-28T17:14:10.098Z,98683.75
2022-11-28T17:16:40.020Z,98676.97
2022-11-28T17:19:07.295Z,98676.31
2022-11-28T17:22:00.714Z,98690.25
2022-11-28T17:24:32.225Z,98677.91
2022-11-28T17:26:59.072Z,98678.75
2022-11-28T17:29:26.245Z,98681.69
2022-11-28T17:31:55.459Z,98682.38
2022-11-28T17:34:24.686Z,98692.44
2022-11-28T17:36:52.018Z,98690.91
2022-11-28T17:39:20.505Z,98686.66
2022-11-28T17:41:47.828Z,98688.63
2022-11-28T17:44:18.698Z,98692.81
2022-11-28T17:46:45.885Z,98695.31
2022-11-28T17:49:13.419Z,98691.41
2022-11-28T17:51:40.497Z,98681.94
2022-11-28T17:54:07.469Z,98688.34
2022-11-28T17:56:34.350Z,98693.69
2022-11-28T17:59:01.466Z,98696.28
2022-11-28T18:01:30.916Z,98692.81
2022-11-28T18:03:58.109Z,98691.97
2022-11-28T18:06:25.679Z,98694.59
2022-11-28T18:08:52.657Z,98694.41
2022-11-28T18:11:21.006Z,98692.38
2022-11-28T18:13:48.508Z,98694.88
2022-11-28T18:16:18.117Z,98702.28
2022-11-28T18:18:45.449Z,98707.56
2022-11-28T18:21:13.352Z,98694.91
2022-11-28T18:23:44.571Z,98700.69
2022-11-28T18:26:14.099Z,98707.06
2022-11-28T18:28:40.890Z,98703.75
2022-11-28T18:31:12.899Z,98707.34
2022-11-28T18:33:40.406Z,98707.81
2022-11-28T18:36:16.241Z,98706.81
2022-11-28T18:38:45.342Z,98709.78
2022-11-28T18:41:14.669Z,98707.56
2022-11-28T18:43:42.175Z,98713.34
2022-11-28T18:46:12.039Z,98714.69
2022-11-28T18:48:46.449Z,98716.91
2022-11-28T18:51:17.745Z,98711.88
2022-11-28T18:53:45.326Z,98714.47
2022-11-28T18:56:12.791Z,98712.81
2022-11-28T18:58:41.492Z,98700.97
2022-11-28T19:01:13.301Z,98714.69
2022-11-28T19:03:40.528Z,98716.47
2022-11-28T19:06:09.218Z,98711.13
2022-11-28T19:08:36.639Z,98722.75
2022-11-28T19:11:09.827Z,98717.34
2022-11-28T19:13:37.855Z,98715.66
2022-11-28T19:16:06.800Z,98723.94
2022-11-28T19:18:34.271Z,98726.56
2022-11-28T19:21:01.226Z,98720.41
2022-11-28T19:23:29.560Z,98732.03
2022-11-28T19:25:56.558Z,98728.59
2022-11-28T19:28:23.539Z,98733.00
2022-11-28T19:30:50.342Z,98730.38
2022-11-28T19:33:17.186Z,98727.88
2022-11-28T19:35:44.220Z,98731.56
2022-11-28T19:38:11.606Z,98728.09
2022-11-28T19:40:38.543Z,98730.56
2022-11-28T19:43:05.649Z,98728.22
2022-11-28T19:45:32.503Z,98734.75
2022-11-28T19:47:59.752Z,98732.38
2022-11-28T19:50:26.685Z,98735.38
2022-11-28T19:52:53.577Z,98734.53
2022-11-28T19:55:20.303Z,98736.31
2022-11-28T19:57:47.393Z,98737.75
2022-11-28T20:00:15.481Z,98736.22
2022-11-28T20:02:42.323Z,98744.84
2022-11-28T20:05:09.727Z,98746.50
2022-11-28T20:07:36.592Z,98740.84
2022-11-28T20:10:03.703Z,98749.84
2022-11-28T20:12:30.655Z,98749.84
2022-11-28T20:14:57.875Z,98752.06
2022-11-28T20:17:25.185Z,98760.22
2022-11-28T20:19:52.215Z,98759.72
2022-11-28T20:22:20.288Z,98753.59
2022-11-28T20:24:47.045Z,98760.75
2022-11-28T20:27:13.885Z,98760.75
2022-11-28T20:29:40.763Z,98763.34
2022-11-28T20:32:07.730Z,98775.31
2022-11-28T20:34:34.446Z,98768.56
2022-11-28T20:37:02.180Z,98763.56
2022-11-28T20:39:29.027Z,98770.94
2022-11-28T20:41:55.895Z,98756.81
2022-11-28T20:44:22.957Z,98762.63
2022-11-28T20:46:50.082Z,98761.44
2022-11-28T20:49:17.467Z,98760.28
2022-11-28T20:51:44.390Z,98760.00
2022-11-28T20:54:13.916Z,98768.09
2022-11-28T20:57:12.963Z,98763.69
2022-11-28T20:59:28.993Z,98769.53
2022-11-28T21:01:55.983Z,98768.56
2022-11-28T21:04:22.963Z,98760.50
2022-11-28T21:06:50.027Z,98759.69
2022-11-28T21:09:18.654Z,98762.16
2022-11-28T21:12:02.835Z,98758.28
2022-11-28T21:14:29.709Z,98760.50
2022-11-28T21:16:57.516Z,98759.44
2022-11-28T21:19:24.696Z,98762.91
2022-11-28T21:21:51.772Z,98761.94
2022-11-28T21:24:18.678Z,98760.38
2022-11-28T21:26:51.319Z,98762.16
2022-11-28T21:29:21.088Z,98760.97
2022-11-28T21:31:48.465Z,98764.06
2022-11-28T21:34:17.027Z,98753.16
2022-11-28T21:36:44.171Z,98755.56
2022-11-28T21:39:14.118Z,98761.00
2022-11-28T21:41:41.051Z,98757.31
2022-11-28T21:44:08.115Z,98762.06
2022-11-28T21:46:34.930Z,98761.38
2022-11-28T21:49:02.250Z,98753.75
2022-11-28T21:51:29.269Z,98760.03
2022-11-28T21:53:57.814Z,98756.00
2022-11-28T21:56:25.040Z,98753.88
2022-11-28T21:58:52.372Z,98758.38
2022-11-28T22:01:21.444Z,98755.00
2022-11-28T22:03:48.720Z,98753.84
2022-11-28T22:06:20.806Z,98756.13
2022-11-28T22:08:48.897Z,98758.38
2022-11-28T22:11:16.626Z,98754.81
2022-11-28T22:13:46.087Z,98757.09
2022-11-28T22:16:18.953Z,98754.38
2022-11-28T22:18:46.774Z,98756.50
2022-11-28T22:21:49.752Z,98758.50
2022-11-28T22:24:02.823Z,98756.63
2022-11-28T22:26:29.744Z,98743.81
2022-11-28T22:28:56.654Z,98753.75
2022-11-28T22:31:23.689Z,98753.66
2022-11-28T22:33:50.800Z,98760.16
2022-11-28T22:36:20.007Z,98755.28
2022-11-28T22:38:48.659Z,98759.78
2022-11-28T22:41:27.927Z,98758.91
2022-11-28T22:43:57.548Z,98758.25
2022-11-28T22:46:24.389Z,98758.16
2022-11-28T22:48:52.416Z,98758.38
2022-11-28T22:51:22.692Z,98766.69
2022-11-28T22:53:53.815Z,98764.28
2022-11-28T22:56:21.630Z,98772.38
2022-11-28T22:58:49.077Z,98761.94
2022-11-28T23:01:19.045Z,98759.22
2022-11-28T23:03:46.770Z,98765.97
2022-11-28T23:06:16.532Z,98761.56
2022-11-28T23:08:43.889Z,98764.41
2022-11-28T23:11:16.158Z,98766.66
2022-11-28T23:13:43.630Z,98764.31
2022-11-28T23:16:24.922Z,98767.13
2022-11-28T23:18:54.458Z,98765.47
2022-11-28T23:21:22.413Z,98769.72
2022-11-28T23:23:49.404Z,98772.81
2022-11-28T23:26:21.462Z,98767.84
2022-11-28T23:28:48.349Z,98771.75
2022-11-28T23:31:20.802Z,98767.00
2022-11-28T23:33:48.156Z,98773.19
2022-11-28T23:36:26.186Z,98772.72
2022-11-28T23:38:58.282Z,98771.88
2022-11-28T23:41:26.115Z,98767.00
2022-11-28T23:43:53.046Z,98766.28
2022-11-28T23:46:20.887Z,98771.16
2022-11-28T23:48:48.807Z,98768.06
2022-11-28T23:51:18.009Z,98764.13
2022-11-28T23:53:45.244Z,98764.50
2022-11-28T23:56:14.461Z,98772.56
2022-11-28T23:58:42.209Z,98776.97
